sensor_id;sensor_type;location;lat;lon;timestamp;P1;durP1;ratioP1;P2;durP2;ratioP2
20084;SDS011;10202;48.474;9.138;2023-05-10T00:00:00;0.60;;;0.60;;
20084;SDS011;10202;48.474;9.138;2023-05-10T00:02:25;0.40;;;0.40;;
20084;SDS011;10202;48.474;9.138;2023-05-10T00:04:54;0.70;;;0.60;;
20084;SDS011;10202;48.474;9.138;2023-05-10T00:07:19;1.42;;;0.60;;
20084;SDS011;10202;48.474;9.138;2023-05-10T00:09:45;0.60;;;0.60;;
20084;SDS011;10202;48.474;9.138;2023-05-10T00:12:13;1.20;;;0.47;;
20084;SDS011;10202;48.474;9.138;2023-05-10T00:14:39;0.80;;;0.60;;
20084;SDS011;10202;48.474;9.138;2023-05-10T00:17:06;1.65;;;0.50;;
20084;SDS011;10202;48.474;9.138;2023-05-10T00:19:32;0.50;;;0.50;;
20084;SDS011;10202;48.474;9.138;2023-05-10T00:21:58;0.77;;;0.50;;
20084;SDS011;10202;48.474;9.138;2023-05-10T00:24:26;2.83;;;0.70;;
20084;SDS011;10202;48.474;9.138;2023-05-10T00:26:53;4.22;;;0.50;;
20084;SDS011;10202;48.474;9.138;2023-05-10T00:29:19;0.90;;;0.60;;
20084;SDS011;10202;48.474;9.138;2023-05-10T00:31:44;1.13;;;0.50;;
20084;SDS011;10202;48.474;9.138;2023-05-10T00:34:10;0.75;;;0.50;;
20084;SDS011;10202;48.474;9.138;2023-05-10T00:36:38;0.40;;;0.40;;
20084;SDS011;10202;48.474;9.138;2023-05-10T00:39:06;0.50;;;0.50;;
20084;SDS011;10202;48.474;9.138;2023-05-10T00:41:35;0.35;;;0.35;;
20084;SDS011;10202;48.474;9.138;2023-05-10T00:44:04;0.93;;;0.43;;
20084;SDS011;10202;48.474;9.138;2023-05-10T00:46:30;0.40;;;0.40;;
20084;SDS011;10202;48.474;9.138;2023-05-10T00:48:58;0.30;;;0.30;;
20084;SDS011;10202;48.474;9.138;2023-05-10T00:51:28;0.90;;;0.50;;
20084;SDS011;10202;48.474;9.138;2023-05-10T00:53:54;1.55;;;0.40;;
20084;SDS011;10202;48.474;9.138;2023-05-10T00:56:21;0.30;;;0.30;;
20084;SDS011;10202;48.474;9.138;2023-05-10T00:58:50;0.35;;;0.35;;
20084;SDS011;10202;48.474;9.138;2023-05-10T01:01:16;0.30;;;0.30;;
20084;SDS011;10202;48.474;9.138;2023-05-10T01:03:41;1.33;;;0.30;;
20084;SDS011;10202;48.474;9.138;2023-05-10T01:06:09;1.42;;;0.30;;
20084;SDS011;10202;48.474;9.138;2023-05-10T01:08:37;1.10;;;0.22;;
20084;SDS011;10202;48.474;9.138;2023-05-10T01:11:05;0.20;;;0.20;;
20084;SDS011;10202;48.474;9.138;2023-05-10T01:13:34;0.77;;;0.25;;
20084;SDS011;10202;48.474;9.138;2023-05-10T01:16:03;0.47;;;0.38;;
20084;SDS011;10202;48.474;9.138;2023-05-10T01:18:33;0.95;;;0.30;;
20084;SDS011;10202;48.474;9.138;2023-05-10T01:21:15;1.70;;;0.30;;
20084;SDS011;10202;48.474;9.138;2023-05-10T01:38:24;0.40;;;0.30;;
20084;SDS011;10202;48.474;9.138;2023-05-10T01:47:07;2.30;;;0.30;;
20084;SDS011;10202;48.474;9.138;2023-05-10T01:49:47;2.20;;;0.25;;
20084;SDS011;10202;48.474;9.138;2023-05-10T01:52:29;0.40;;;0.40;;
20084;SDS011;10202;48.474;9.138;2023-05-10T01:55:04;0.40;;;0.40;;
20084;SDS011;10202;48.474;9.138;2023-05-10T01:57:34;0.75;;;0.30;;
20084;SDS011;10202;48.474;9.138;2023-05-10T02:00:02;0.30;;;0.30;;
20084;SDS011;10202;48.474;9.138;2023-05-10T02:02:40;1.48;;;0.30;;
20084;SDS011;10202;48.474;9.138;2023-05-10T02:05:10;1.98;;;0.52;;
20084;SDS011;10202;48.474;9.138;2023-05-10T02:07:38;3.42;;;0.40;;
20084;SDS011;10202;48.474;9.138;2023-05-10T02:10:09;0.55;;;0.32;;
20084;SDS011;10202;48.474;9.138;2023-05-10T02:12:36;0.30;;;0.30;;
20084;SDS011;10202;48.474;9.138;2023-05-10T02:15:06;0.73;;;0.40;;
20084;SDS011;10202;48.474;9.138;2023-05-10T02:17:34;0.80;;;0.40;;
20084;SDS011;10202;48.474;9.138;2023-05-10T02:20:01;0.70;;;0.40;;
20084;SDS011;10202;48.474;9.138;2023-05-10T02:22:29;1.02;;;0.52;;
20084;SDS011;10202;48.474;9.138;2023-05-10T02:24:55;0.75;;;0.40;;
20084;SDS011;10202;48.474;9.138;2023-05-10T02:27:23;0.40;;;0.40;;
20084;SDS011;10202;48.474;9.138;2023-05-10T02:29:49;0.40;;;0.40;;
20084;SDS011;10202;48.474;9.138;2023-05-10T02:32:17;0.35;;;0.35;;
20084;SDS011;10202;48.474;9.138;2023-05-10T02:34:45;1.17;;;0.50;;
20084;SDS011;10202;48.474;9.138;2023-05-10T02:37:16;0.35;;;0.35;;
20084;SDS011;10202;48.474;9.138;2023-05-10T02:39:47;1.17;;;0.60;;
20084;SDS011;10202;48.474;9.138;2023-05-10T02:42:18;0.70;;;0.70;;
20084;SDS011;10202;48.474;9.138;2023-05-10T02:44:47;2.40;;;0.50;;
20084;SDS011;10202;48.474;9.138;2023-05-10T02:47:15;0.30;;;0.30;;
20084;SDS011;10202;48.474;9.138;2023-05-10T02:49:41;2.25;;;0.52;;
20084;SDS011;10202;48.474;9.138;2023-05-10T02:52:08;0.40;;;0.40;;
20084;SDS011;10202;48.474;9.138;2023-05-10T02:54:49;1.52;;;0.70;;
20084;SDS011;10202;48.474;9.138;2023-05-10T02:57:22;0.65;;;0.40;;
20084;SDS011;10202;48.474;9.138;2023-05-10T02:59:56;3.08;;;0.70;;
20084;SDS011;10202;48.474;9.138;2023-05-10T03:02:28;2.92;;;0.73;;
20084;SDS011;10202;48.474;9.138;2023-05-10T03:04:58;0.50;;;0.50;;
20084;SDS011;10202;48.474;9.138;2023-05-10T03:07:24;1.17;;;0.55;;
20084;SDS011;10202;48.474;9.138;2023-05-10T03:09:49;1.95;;;0.50;;
20084;SDS011;10202;48.474;9.138;2023-05-10T03:15:08;3.22;;;0.60;;
20084;SDS011;10202;48.474;9.138;2023-05-10T03:17:55;0.93;;;0.60;;
20084;SDS011;10202;48.474;9.138;2023-05-10T03:20:34;0.47;;;0.47;;
20084;SDS011;10202;48.474;9.138;2023-05-10T03:25:55;0.85;;;0.50;;
20084;SDS011;10202;48.474;9.138;2023-05-10T03:28:22;0.60;;;0.60;;
20084;SDS011;10202;48.474;9.138;2023-05-10T03:30:50;1.00;;;0.60;;
20084;SDS011;10202;48.474;9.138;2023-05-10T03:33:18;0.57;;;0.57;;
20084;SDS011;10202;48.474;9.138;2023-05-10T03:35:45;0.50;;;0.50;;
20084;SDS011;10202;48.474;9.138;2023-05-10T03:38:14;4.80;;;0.60;;
20084;SDS011;10202;48.474;9.138;2023-05-10T03:40:42;3.15;;;0.50;;
20084;SDS011;10202;48.474;9.138;2023-05-10T03:43:08;0.50;;;0.50;;
20084;SDS011;10202;48.474;9.138;2023-05-10T03:45:33;1.85;;;0.50;;
20084;SDS011;10202;48.474;9.138;2023-05-10T03:47:59;1.20;;;0.45;;
20084;SDS011;10202;48.474;9.138;2023-05-10T03:50:25;0.50;;;0.50;;
20084;SDS011;10202;48.474;9.138;2023-05-10T03:52:52;0.50;;;0.50;;
20084;SDS011;10202;48.474;9.138;2023-05-10T03:55:21;2.08;;;0.57;;
20084;SDS011;10202;48.474;9.138;2023-05-10T03:57:51;1.05;;;0.63;;
20084;SDS011;10202;48.474;9.138;2023-05-10T04:00:20;0.57;;;0.57;;
20084;SDS011;10202;48.474;9.138;2023-05-10T04:02:49;0.40;;;0.40;;
20084;SDS011;10202;48.474;9.138;2023-05-10T04:05:21;0.50;;;0.50;;
20084;SDS011;10202;48.474;9.138;2023-05-10T04:07:51;0.95;;;0.60;;
20084;SDS011;10202;48.474;9.138;2023-05-10T04:10:21;2.67;;;0.70;;
20084;SDS011;10202;48.474;9.138;2023-05-10T04:12:47;0.93;;;0.75;;
20084;SDS011;10202;48.474;9.138;2023-05-10T04:15:12;2.00;;;0.80;;
20084;SDS011;10202;48.474;9.138;2023-05-10T04:17:40;2.03;;;0.80;;
20084;SDS011;10202;48.474;9.138;2023-05-10T04:20:06;0.60;;;0.60;;
20084;SDS011;10202;48.474;9.138;2023-05-10T04:22:33;1.40;;;0.60;;
20084;SDS011;10202;48.474;9.138;2023-05-10T04:24:58;0.50;;;0.50;;
20084;SDS011;10202;48.474;9.138;2023-05-10T04:27:24;1.23;;;0.60;;
20084;SDS011;10202;48.474;9.138;2023-05-10T04:29:50;1.95;;;0.80;;
20084;SDS011;10202;48.474;9.138;2023-05-10T04:32:15;1.42;;;0.75;;
20084;SDS011;10202;48.474;9.138;2023-05-10T04:34:43;0.50;;;0.50;;
20084;SDS011;10202;48.474;9.138;2023-05-10T04:37:08;1.05;;;0.80;;
20084;SDS011;10202;48.474;9.138;2023-05-10T04:39:38;1.42;;;0.70;;
20084;SDS011;10202;48.474;9.138;2023-05-10T04:42:04;0.73;;;0.70;;
20084;SDS011;10202;48.474;9.138;2023-05-10T04:44:32;0.60;;;0.60;;
20084;SDS011;10202;48.474;9.138;2023-05-10T04:46:58;0.63;;;0.60;;
20084;SDS011;10202;48.474;9.138;2023-05-10T04:49:24;0.80;;;0.80;;
20084;SDS011;10202;48.474;9.138;2023-05-10T04:51:49;1.13;;;0.75;;
20084;SDS011;10202;48.474;9.138;2023-05-10T04:54:15;0.63;;;0.60;;
20084;SDS011;10202;48.474;9.138;2023-05-10T04:56:43;1.08;;;0.68;;
20084;SDS011;10202;48.474;9.138;2023-05-10T04:59:08;0.70;;;0.70;;
20084;SDS011;10202;48.474;9.138;2023-05-10T05:01:34;1.10;;;0.80;;
20084;SDS011;10202;48.474;9.138;2023-05-10T05:04:00;0.80;;;0.80;;
20084;SDS011;10202;48.474;9.138;2023-05-10T05:06:25;1.98;;;0.90;;
20084;SDS011;10202;48.474;9.138;2023-05-10T05:08:52;1.13;;;0.70;;
20084;SDS011;10202;48.474;9.138;2023-05-10T05:11:18;1.23;;;0.90;;
20084;SDS011;10202;48.474;9.138;2023-05-10T05:13:48;1.73;;;0.93;;
20084;SDS011;10202;48.474;9.138;2023-05-10T05:16:14;1.23;;;1.08;;
20084;SDS011;10202;48.474;9.138;2023-05-10T05:18:40;3.95;;;1.25;;
20084;SDS011;10202;48.474;9.138;2023-05-10T05:21:14;3.80;;;1.25;;
20084;SDS011;10202;48.474;9.138;2023-05-10T05:23:41;1.40;;;1.23;;
20084;SDS011;10202;48.474;9.138;2023-05-10T05:26:09;2.45;;;1.20;;
20084;SDS011;10202;48.474;9.138;2023-05-10T05:28:35;4.88;;;1.27;;
20084;SDS011;10202;48.474;9.138;2023-05-10T05:31:06;3.78;;;1.70;;
20084;SDS011;10202;48.474;9.138;2023-05-10T05:33:34;1.10;;;1.10;;
20084;SDS011;10202;48.474;9.138;2023-05-10T05:36:00;2.25;;;1.10;;
20084;SDS011;10202;48.474;9.138;2023-05-10T05:38:30;4.03;;;1.20;;
20084;SDS011;10202;48.474;9.138;2023-05-10T05:40:58;1.80;;;1.40;;
20084;SDS011;10202;48.474;9.138;2023-05-10T05:43:23;3.70;;;1.48;;
20084;SDS011;10202;48.474;9.138;2023-05-10T05:45:49;2.15;;;1.38;;
20084;SDS011;10202;48.474;9.138;2023-05-10T05:48:20;2.78;;;2.10;;
20084;SDS011;10202;48.474;9.138;2023-05-10T05:50:48;1.73;;;1.40;;
20084;SDS011;10202;48.474;9.138;2023-05-10T05:53:14;3.58;;;1.45;;
20084;SDS011;10202;48.474;9.138;2023-05-10T05:55:39;3.03;;;1.70;;
20084;SDS011;10202;48.474;9.138;2023-05-10T05:58:05;2.90;;;1.70;;
20084;SDS011;10202;48.474;9.138;2023-05-10T06:00:30;4.72;;;1.60;;
20084;SDS011;10202;48.474;9.138;2023-05-10T06:02:56;4.20;;;1.40;;
20084;SDS011;10202;48.474;9.138;2023-05-10T06:05:24;2.25;;;1.40;;
20084;SDS011;10202;48.474;9.138;2023-05-10T06:07:52;1.92;;;1.77;;
20084;SDS011;10202;48.474;9.138;2023-05-10T06:10:17;1.73;;;1.30;;
20084;SDS011;10202;48.474;9.138;2023-05-10T06:12:43;5.28;;;1.30;;
20084;SDS011;10202;48.474;9.138;2023-05-10T06:15:09;2.25;;;1.60;;
20084;SDS011;10202;48.474;9.138;2023-05-10T06:17:37;1.80;;;1.58;;
20084;SDS011;10202;48.474;9.138;2023-05-10T06:20:05;4.65;;;1.80;;
20084;SDS011;10202;48.474;9.138;2023-05-10T06:22:32;2.55;;;1.45;;
20084;SDS011;10202;48.474;9.138;2023-05-10T06:24:57;1.50;;;1.30;;
20084;SDS011;10202;48.474;9.138;2023-05-10T06:27:23;3.35;;;1.52;;
20084;SDS011;10202;48.474;9.138;2023-05-10T06:29:49;2.80;;;1.50;;
20084;SDS011;10202;48.474;9.138;2023-05-10T06:32:15;1.98;;;1.10;;
20084;SDS011;10202;48.474;9.138;2023-05-10T06:34:40;5.07;;;1.60;;
20084;SDS011;10202;48.474;9.138;2023-05-10T06:37:08;1.55;;;1.20;;
20084;SDS011;10202;48.474;9.138;2023-05-10T06:39:36;3.00;;;1.42;;
20084;SDS011;10202;48.474;9.138;2023-05-10T06:42:01;1.75;;;1.20;;
20084;SDS011;10202;48.474;9.138;2023-05-10T06:44:31;2.47;;;1.38;;
20084;SDS011;10202;48.474;9.138;2023-05-10T06:46:57;1.77;;;1.10;;
20084;SDS011;10202;48.474;9.138;2023-05-10T06:49:22;1.10;;;1.00;;
20084;SDS011;10202;48.474;9.138;2023-05-10T06:51:48;3.88;;;1.50;;
20084;SDS011;10202;48.474;9.138;2023-05-10T06:54:14;1.85;;;1.40;;
20084;SDS011;10202;48.474;9.138;2023-05-10T06:56:39;2.25;;;1.10;;
20084;SDS011;10202;48.474;9.138;2023-05-10T06:59:05;3.83;;;1.02;;
20084;SDS011;10202;48.474;9.138;2023-05-10T07:01:30;1.10;;;0.90;;
20084;SDS011;10202;48.474;9.138;2023-05-10T07:03:56;2.47;;;0.82;;
20084;SDS011;10202;48.474;9.138;2023-05-10T07:06:21;2.90;;;0.90;;
20084;SDS011;10202;48.474;9.138;2023-05-10T07:08:47;1.42;;;0.75;;
20084;SDS011;10202;48.474;9.138;2023-05-10T07:11:12;2.65;;;1.08;;
20084;SDS011;10202;48.474;9.138;2023-05-10T07:13:38;2.88;;;1.00;;
20084;SDS011;10202;48.474;9.138;2023-05-10T07:16:06;2.15;;;0.77;;
20084;SDS011;10202;48.474;9.138;2023-05-10T07:18:35;1.02;;;0.70;;
20084;SDS011;10202;48.474;9.138;2023-05-10T07:21:05;5.20;;;0.80;;
20084;SDS011;10202;48.474;9.138;2023-05-10T07:23:30;0.68;;;0.68;;
20084;SDS011;10202;48.474;9.138;2023-05-10T07:25:58;1.30;;;0.90;;
20084;SDS011;10202;48.474;9.138;2023-05-10T07:28:24;2.30;;;1.00;;
20084;SDS011;10202;48.474;9.138;2023-05-10T07:30:50;1.73;;;1.10;;
20084;SDS011;10202;48.474;9.138;2023-05-10T07:33:20;1.45;;;1.10;;
20084;SDS011;10202;48.474;9.138;2023-05-10T07:35:45;1.95;;;1.10;;
20084;SDS011;10202;48.474;9.138;2023-05-10T07:38:11;1.98;;;1.30;;
20084;SDS011;10202;48.474;9.138;2023-05-10T07:40:37;3.13;;;1.20;;
20084;SDS011;10202;48.474;9.138;2023-05-10T07:43:03;2.03;;;1.13;;
20084;SDS011;10202;48.474;9.138;2023-05-10T07:45:31;1.85;;;1.40;;
20084;SDS011;10202;48.474;9.138;2023-05-10T07:47:58;2.92;;;1.25;;
20084;SDS011;10202;48.474;9.138;2023-05-10T07:50:27;1.40;;;1.30;;
20084;SDS011;10202;48.474;9.138;2023-05-10T07:52:52;3.70;;;1.27;;
20084;SDS011;10202;48.474;9.138;2023-05-10T07:55:18;2.17;;;1.20;;
20084;SDS011;10202;48.474;9.138;2023-05-10T07:57:45;2.10;;;1.10;;
20084;SDS011;10202;48.474;9.138;2023-05-10T08:00:13;0.82;;;0.80;;
20084;SDS011;10202;48.474;9.138;2023-05-10T08:02:39;2.63;;;0.88;;
20084;SDS011;10202;48.474;9.138;2023-05-10T08:05:05;1.10;;;1.00;;
20084;SDS011;10202;48.474;9.138;2023-05-10T08:07:33;1.20;;;0.95;;
20084;SDS011;10202;48.474;9.138;2023-05-10T08:10:01;2.90;;;1.10;;
20084;SDS011;10202;48.474;9.138;2023-05-10T08:12:27;4.80;;;0.75;;
20084;SDS011;10202;48.474;9.138;2023-05-10T08:14:53;1.58;;;0.90;;
20084;SDS011;10202;48.474;9.138;2023-05-10T08:17:21;2.17;;;0.98;;
20084;SDS011;10202;48.474;9.138;2023-05-10T08:19:46;5.68;;;0.90;;
20084;SDS011;10202;48.474;9.138;2023-05-10T08:22:12;1.33;;;0.90;;
20084;SDS011;10202;48.474;9.138;2023-05-10T08:24:37;0.70;;;0.70;;
20084;SDS011;10202;48.474;9.138;2023-05-10T08:27:07;1.23;;;0.60;;
20084;SDS011;10202;48.474;9.138;2023-05-10T08:29:33;0.68;;;0.65;;
20084;SDS011;10202;48.474;9.138;2023-05-10T08:31:59;0.98;;;0.57;;
20084;SDS011;10202;48.474;9.138;2023-05-10T08:34:27;3.28;;;0.50;;
20084;SDS011;10202;48.474;9.138;2023-05-10T08:36:52;1.52;;;0.70;;
20084;SDS011;10202;48.474;9.138;2023-05-10T08:39:18;0.85;;;0.65;;
20084;SDS011;10202;48.474;9.138;2023-05-10T08:41:46;1.15;;;0.70;;
20084;SDS011;10202;48.474;9.138;2023-05-10T08:44:14;2.83;;;0.75;;
20084;SDS011;10202;48.474;9.138;2023-05-10T08:46:45;2.53;;;0.80;;
20084;SDS011;10202;48.474;9.138;2023-05-10T08:49:15;0.70;;;0.57;;
20084;SDS011;10202;48.474;9.138;2023-05-10T08:51:53;0.73;;;0.60;;
20084;SDS011;10202;48.474;9.138;2023-05-10T08:54:21;0.90;;;0.50;;
20084;SDS011;10202;48.474;9.138;2023-05-10T08:56:49;0.50;;;0.50;;
20084;SDS011;10202;48.474;9.138;2023-05-10T08:59:19;0.60;;;0.60;;
20084;SDS011;10202;48.474;9.138;2023-05-10T09:01:45;1.70;;;0.70;;
20084;SDS011;10202;48.474;9.138;2023-05-10T09:04:14;0.75;;;0.52;;
20084;SDS011;10202;48.474;9.138;2023-05-10T09:06:40;3.08;;;0.50;;
20084;SDS011;10202;48.474;9.138;2023-05-10T09:09:06;0.80;;;0.57;;
20084;SDS011;10202;48.474;9.138;2023-05-10T09:11:34;0.82;;;0.70;;
20084;SDS011;10202;48.474;9.138;2023-05-10T09:14:02;3.83;;;0.70;;
20084;SDS011;10202;48.474;9.138;2023-05-10T09:16:29;2.67;;;0.65;;
20084;SDS011;10202;48.474;9.138;2023-05-10T09:18:55;1.27;;;0.60;;
20084;SDS011;10202;48.474;9.138;2023-05-10T09:21:23;2.60;;;0.70;;
20084;SDS011;10202;48.474;9.138;2023-05-10T09:23:49;0.40;;;0.40;;
20084;SDS011;10202;48.474;9.138;2023-05-10T09:26:17;0.55;;;0.55;;
20084;SDS011;10202;48.474;9.138;2023-05-10T09:28:55;0.50;;;0.50;;
20084;SDS011;10202;48.474;9.138;2023-05-10T09:32:00;2.40;;;0.50;;
20084;SDS011;10202;48.474;9.138;2023-05-10T09:34:28;0.70;;;0.50;;
20084;SDS011;10202;48.474;9.138;2023-05-10T09:37:01;1.40;;;0.60;;
20084;SDS011;10202;48.474;9.138;2023-05-10T09:39:33;0.40;;;0.40;;
20084;SDS011;10202;48.474;9.138;2023-05-10T09:42:04;1.23;;;0.80;;
20084;SDS011;10202;48.474;9.138;2023-05-10T09:44:32;0.50;;;0.50;;
20084;SDS011;10202;48.474;9.138;2023-05-10T09:47:03;2.13;;;0.60;;
20084;SDS011;10202;48.474;9.138;2023-05-10T09:49:29;2.58;;;0.60;;
20084;SDS011;10202;48.474;9.138;2023-05-10T09:52:02;1.58;;;0.40;;
20084;SDS011;10202;48.474;9.138;2023-05-10T09:54:29;0.75;;;0.60;;
20084;SDS011;10202;48.474;9.138;2023-05-10T09:56:56;1.05;;;0.55;;
20084;SDS011;10202;48.474;9.138;2023-05-10T09:59:27;0.80;;;0.40;;
20084;SDS011;10202;48.474;9.138;2023-05-10T10:01:57;1.40;;;0.47;;
20084;SDS011;10202;48.474;9.138;2023-05-10T10:04:25;2.38;;;0.70;;
20084;SDS011;10202;48.474;9.138;2023-05-10T10:07:03;0.60;;;0.60;;
20084;SDS011;10202;48.474;9.138;2023-05-10T10:09:30;8.75;;;0.68;;
20084;SDS011;10202;48.474;9.138;2023-05-10T10:11:59;1.90;;;0.70;;
20084;SDS011;10202;48.474;9.138;2023-05-10T10:14:27;1.15;;;0.50;;
20084;SDS011;10202;48.474;9.138;2023-05-10T10:16:53;0.60;;;0.50;;
20084;SDS011;10202;48.474;9.138;2023-05-10T10:19:19;2.05;;;0.68;;
20084;SDS011;10202;48.474;9.138;2023-05-10T10:21:51;3.42;;;0.70;;
20084;SDS011;10202;48.474;9.138;2023-05-10T10:24:19;0.75;;;0.60;;
20084;SDS011;10202;48.474;9.138;2023-05-10T10:26:45;1.08;;;0.70;;
20084;SDS011;10202;48.474;9.138;2023-05-10T10:35:22;1.27;;;0.60;;
20084;SDS011;10202;48.474;9.138;2023-05-10T10:37:47;0.60;;;0.60;;
20084;SDS011;10202;48.474;9.138;2023-05-10T10:40:26;0.73;;;0.50;;
20084;SDS011;10202;48.474;9.138;2023-05-10T10:42:53;1.27;;;0.68;;
20084;SDS011;10202;48.474;9.138;2023-05-10T10:45:20;0.60;;;0.60;;
20084;SDS011;10202;48.474;9.138;2023-05-10T10:47:46;0.60;;;0.60;;
20084;SDS011;10202;48.474;9.138;2023-05-10T10:50:12;0.50;;;0.50;;
20084;SDS011;10202;48.474;9.138;2023-05-10T10:52:41;0.88;;;0.63;;
20084;SDS011;10202;48.474;9.138;2023-05-10T10:55:14;0.40;;;0.40;;
20084;SDS011;10202;48.474;9.138;2023-05-10T10:57:49;1.33;;;0.77;;
20084;SDS011;10202;48.474;9.138;2023-05-10T11:00:18;0.60;;;0.60;;
20084;SDS011;10202;48.474;9.138;2023-05-10T11:02:47;1.05;;;0.60;;
20084;SDS011;10202;48.474;9.138;2023-05-10T11:05:23;0.85;;;0.77;;
20084;SDS011;10202;48.474;9.138;2023-05-10T11:07:54;1.15;;;0.88;;
20084;SDS011;10202;48.474;9.138;2023-05-10T11:10:23;1.75;;;0.90;;
20084;SDS011;10202;48.474;9.138;2023-05-10T11:15:31;0.98;;;0.80;;
20084;SDS011;10202;48.474;9.138;2023-05-10T11:18:16;0.40;;;0.40;;
20084;SDS011;10202;48.474;9.138;2023-05-10T11:20:49;0.28;;;0.28;;
20084;SDS011;10202;48.474;9.138;2023-05-10T11:23:29;1.30;;;0.32;;
20084;SDS011;10202;48.474;9.138;2023-05-10T11:26:12;1.20;;;0.52;;
20084;SDS011;10202;48.474;9.138;2023-05-10T11:28:44;0.22;;;0.22;;
20084;SDS011;10202;48.474;9.138;2023-05-10T11:31:14;0.40;;;0.40;;
20084;SDS011;10202;48.474;9.138;2023-05-10T11:33:51;2.25;;;0.50;;
20084;SDS011;10202;48.474;9.138;2023-05-10T11:36:20;0.35;;;0.35;;
20084;SDS011;10202;48.474;9.138;2023-05-10T11:38:48;2.35;;;0.68;;
20084;SDS011;10202;48.474;9.138;2023-05-10T11:41:15;1.75;;;0.60;;
20084;SDS011;10202;48.474;9.138;2023-05-10T11:43:49;3.00;;;0.60;;
20084;SDS011;10202;48.474;9.138;2023-05-10T11:46:18;1.55;;;0.60;;
20084;SDS011;10202;48.474;9.138;2023-05-10T11:48:49;4.22;;;0.70;;
20084;SDS011;10202;48.474;9.138;2023-05-10T11:51:24;1.02;;;0.70;;
20084;SDS011;10202;48.474;9.138;2023-05-10T11:53:53;1.42;;;0.77;;
20084;SDS011;10202;48.474;9.138;2023-05-10T11:56:22;2.75;;;0.70;;
20084;SDS011;10202;48.474;9.138;2023-05-10T11:58:52;0.70;;;0.60;;
20084;SDS011;10202;48.474;9.138;2023-05-10T12:01:21;0.73;;;0.70;;
20084;SDS011;10202;48.474;9.138;2023-05-10T12:03:48;1.88;;;0.93;;
20084;SDS011;10202;48.474;9.138;2023-05-10T12:06:15;1.25;;;0.80;;
20084;SDS011;10202;48.474;9.138;2023-05-10T12:08:44;1.90;;;0.90;;
20084;SDS011;10202;48.474;9.138;2023-05-10T12:11:12;3.17;;;1.90;;
20084;SDS011;10202;48.474;9.138;2023-05-10T12:13:42;0.77;;;0.77;;
20084;SDS011;10202;48.474;9.138;2023-05-10T12:16:18;1.60;;;0.57;;
20084;SDS011;10202;48.474;9.138;2023-05-10T12:18:44;2.30;;;0.65;;
20084;SDS011;10202;48.474;9.138;2023-05-10T12:21:13;1.08;;;0.70;;
20084;SDS011;10202;48.474;9.138;2023-05-10T12:23:39;2.97;;;0.98;;
20084;SDS011;10202;48.474;9.138;2023-05-10T12:26:10;2.15;;;0.88;;
20084;SDS011;10202;48.474;9.138;2023-05-10T12:28:36;1.35;;;0.70;;
20084;SDS011;10202;48.474;9.138;2023-05-10T12:31:05;2.83;;;0.68;;
20084;SDS011;10202;48.474;9.138;2023-05-10T12:33:41;1.15;;;0.80;;
20084;SDS011;10202;48.474;9.138;2023-05-10T12:36:09;0.77;;;0.60;;
20084;SDS011;10202;48.474;9.138;2023-05-10T12:38:37;2.08;;;0.88;;
20084;SDS011;10202;48.474;9.138;2023-05-10T12:41:08;2.80;;;0.90;;
20084;SDS011;10202;48.474;9.138;2023-05-10T12:43:35;5.43;;;1.05;;
20084;SDS011;10202;48.474;9.138;2023-05-10T12:48:36;6.65;;;0.90;;
20084;SDS011;10202;48.474;9.138;2023-05-10T12:51:03;4.75;;;0.82;;
20084;SDS011;10202;48.474;9.138;2023-05-10T12:53:30;2.30;;;0.90;;
20084;SDS011;10202;48.474;9.138;2023-05-10T12:55:56;2.28;;;0.90;;
20084;SDS011;10202;48.474;9.138;2023-05-10T12:58:22;6.90;;;1.10;;
20084;SDS011;10202;48.474;9.138;2023-05-10T13:00:48;1.77;;;0.82;;
20084;SDS011;10202;48.474;9.138;2023-05-10T13:03:16;1.65;;;1.00;;
20084;SDS011;10202;48.474;9.138;2023-05-10T13:05:44;1.80;;;0.95;;
20084;SDS011;10202;48.474;9.138;2023-05-10T13:08:10;4.07;;;1.10;;
20084;SDS011;10202;48.474;9.138;2023-05-10T13:10:35;0.70;;;0.70;;
20084;SDS011;10202;48.474;9.138;2023-05-10T13:13:01;1.15;;;0.70;;
20084;SDS011;10202;48.474;9.138;2023-05-10T13:15:29;0.85;;;0.82;;
20084;SDS011;10202;48.474;9.138;2023-05-10T13:18:00;2.42;;;0.90;;
20084;SDS011;10202;48.474;9.138;2023-05-10T13:20:25;1.92;;;1.00;;
20084;SDS011;10202;48.474;9.138;2023-05-10T13:22:52;3.90;;;0.80;;
20084;SDS011;10202;48.474;9.138;2023-05-10T13:25:18;3.50;;;0.98;;
20084;SDS011;10202;48.474;9.138;2023-05-10T13:27:45;5.03;;;1.23;;
20084;SDS011;10202;48.474;9.138;2023-05-10T13:30:11;3.25;;;0.90;;
20084;SDS011;10202;48.474;9.138;2023-05-10T13:32:37;2.05;;;0.95;;
20084;SDS011;10202;48.474;9.138;2023-05-10T13:35:03;1.70;;;0.80;;
20084;SDS011;10202;48.474;9.138;2023-05-10T13:37:30;2.47;;;1.10;;
20084;SDS011;10202;48.474;9.138;2023-05-10T13:40:00;1.15;;;0.75;;
20084;SDS011;10202;48.474;9.138;2023-05-10T13:42:26;1.80;;;0.93;;
20084;SDS011;10202;48.474;9.138;2023-05-10T13:44:54;2.50;;;0.90;;
20084;SDS011;10202;48.474;9.138;2023-05-10T13:47:22;1.08;;;0.95;;
20084;SDS011;10202;48.474;9.138;2023-05-10T13:49:50;4.20;;;1.20;;
20084;SDS011;10202;48.474;9.138;2023-05-10T13:52:18;2.63;;;1.05;;
20084;SDS011;10202;48.474;9.138;2023-05-10T13:54:46;5.68;;;1.02;;
20084;SDS011;10202;48.474;9.138;2023-05-10T13:57:11;3.85;;;0.93;;
20084;SDS011;10202;48.474;9.138;2023-05-10T13:59:38;2.90;;;1.05;;
20084;SDS011;10202;48.474;9.138;2023-05-10T14:02:07;1.45;;;0.90;;
20084;SDS011;10202;48.474;9.138;2023-05-10T14:04:37;1.50;;;0.88;;
20084;SDS011;10202;48.474;9.138;2023-05-10T14:07:03;3.22;;;0.90;;
20084;SDS011;10202;48.474;9.138;2023-05-10T14:09:33;2.60;;;1.00;;
20084;SDS011;10202;48.474;9.138;2023-05-10T14:11:58;1.60;;;0.90;;
20084;SDS011;10202;48.474;9.138;2023-05-10T14:14:24;2.45;;;1.08;;
20084;SDS011;10202;48.474;9.138;2023-05-10T14:16:56;0.70;;;0.70;;
20084;SDS011;10202;48.474;9.138;2023-05-10T14:19:21;2.80;;;1.00;;
20084;SDS011;10202;48.474;9.138;2023-05-10T14:21:49;1.73;;;0.73;;
20084;SDS011;10202;48.474;9.138;2023-05-10T14:24:17;1.23;;;0.77;;
20084;SDS011;10202;48.474;9.138;2023-05-10T14:26:43;1.45;;;0.80;;
20084;SDS011;10202;48.474;9.138;2023-05-10T14:29:08;0.88;;;0.70;;
20084;SDS011;10202;48.474;9.138;2023-05-10T14:31:34;8.43;;;0.80;;
20084;SDS011;10202;48.474;9.138;2023-05-10T14:34:02;4.22;;;0.75;;
20084;SDS011;10202;48.474;9.138;2023-05-10T14:36:30;1.23;;;0.80;;
20084;SDS011;10202;48.474;9.138;2023-05-10T14:38:56;4.18;;;0.90;;
20084;SDS011;10202;48.474;9.138;2023-05-10T14:41:24;2.72;;;0.95;;
20084;SDS011;10202;48.474;9.138;2023-05-10T14:43:50;1.65;;;0.70;;
20084;SDS011;10202;48.474;9.138;2023-05-10T14:46:18;1.20;;;0.80;;
20084;SDS011;10202;48.474;9.138;2023-05-10T14:48:46;1.85;;;1.00;;
20084;SDS011;10202;48.474;9.138;2023-05-10T14:51:16;6.18;;;1.38;;
20084;SDS011;10202;48.474;9.138;2023-05-10T14:53:50;1.80;;;1.35;;
20084;SDS011;10202;48.474;9.138;2023-05-10T14:56:15;3.05;;;1.00;;
20084;SDS011;10202;48.474;9.138;2023-05-10T14:58:44;3.25;;;1.10;;
20084;SDS011;10202;48.474;9.138;2023-05-10T15:01:10;5.07;;;1.20;;
20084;SDS011;10202;48.474;9.138;2023-05-10T15:03:41;8.80;;;1.30;;
20084;SDS011;10202;48.474;9.138;2023-05-10T15:06:07;1.52;;;1.20;;
20084;SDS011;10202;48.474;9.138;2023-05-10T15:08:33;1.65;;;1.05;;
20084;SDS011;10202;48.474;9.138;2023-05-10T15:10:59;5.90;;;1.10;;
20084;SDS011;10202;48.474;9.138;2023-05-10T15:13:25;1.65;;;1.02;;
20084;SDS011;10202;48.474;9.138;2023-05-10T15:15:51;1.63;;;1.10;;
20084;SDS011;10202;48.474;9.138;2023-05-10T15:18:21;3.63;;;1.10;;
20084;SDS011;10202;48.474;9.138;2023-05-10T15:20:46;3.42;;;1.30;;
20084;SDS011;10202;48.474;9.138;2023-05-10T15:23:12;1.80;;;1.13;;
20084;SDS011;10202;48.474;9.138;2023-05-10T15:25:40;0.80;;;0.77;;
20084;SDS011;10202;48.474;9.138;2023-05-10T15:28:12;1.25;;;0.80;;
20084;SDS011;10202;48.474;9.138;2023-05-10T15:30:40;1.70;;;0.90;;